sensor_id;sensor_type;location;lat;lon;timestamp;P1;P2;P0
54021;PMS7003;39936;51.058;17.220;2023-03-14T00:01:36;17;17;11
54021;PMS7003;39936;51.058;17.220;2023-03-14T00:05:41;21;15;8
54021;PMS7003;39936;51.058;17.220;2023-03-14T00:09:21;25;21;15
54021;PMS7003;39936;51.058;17.220;2023-03-14T00:12:52;38;29;18
54021;PMS7003;39936;51.058;17.220;2023-03-14T00:16:25;53;43;27
54021;PMS7003;39936;51.058;17.220;2023-03-14T00:19:58;29;27;18
54021;PMS7003;39936;51.058;17.220;2023-03-14T00:23:47;38;32;24
54021;PMS7003;39936;51.058;17.220;2023-03-14T00:31:16;36;29;19
54021;PMS7003;39936;51.058;17.220;2023-03-14T00:35:00;30;24;15
54021;PMS7003;39936;51.058;17.220;2023-03-14T00:39:17;22;19;13
54021;PMS7003;39936;51.058;17.220;2023-03-14T00:43:16;20;18;11
54021;PMS7003;39936;51.058;17.220;2023-03-14T00:47:26;23;16;12
54021;PMS7003;39936;51.058;17.220;2023-03-14T00:50:58;18;15;11
54021;PMS7003;39936;51.058;17.220;2023-03-14T00:54:24;23;20;13
54021;PMS7003;39936;51.058;17.220;2023-03-14T00:57:51;24;22;16
54021;PMS7003;39936;51.058;17.220;2023-03-14T01:01:30;22;18;12
54021;PMS7003;39936;51.058;17.220;2023-03-14T01:05:14;14;13;9
54021;PMS7003;39936;51.058;17.220;2023-03-14T01:09:01;16;16;11
54021;PMS7003;39936;51.058;17.220;2023-03-14T01:12:46;21;16;11
54021;PMS7003;39936;51.058;17.220;2023-03-14T01:16:17;22;20;13
54021;PMS7003;39936;51.058;17.220;2023-03-14T01:19:57;25;20;14
54021;PMS7003;39936;51.058;17.220;2023-03-14T01:24:11;33;27;18
54021;PMS7003;39936;51.058;17.220;2023-03-14T01:27:53;35;26;18
54021;PMS7003;39936;51.058;17.220;2023-03-14T01:31:39;30;26;17
54021;PMS7003;39936;51.058;17.220;2023-03-14T01:35:53;42;33;21
54021;PMS7003;39936;51.058;17.220;2023-03-14T01:39:38;30;25;15
54021;PMS7003;39936;51.058;17.220;2023-03-14T01:43:32;21;20;14
54021;PMS7003;39936;51.058;17.220;2023-03-14T01:47:13;21;17;11
54021;PMS7003;39936;51.058;17.220;2023-03-14T01:50:59;15;14;10
54021;PMS7003;39936;51.058;17.220;2023-03-14T01:58:35;20;16;10
54021;PMS7003;39936;51.058;17.220;2023-03-14T02:01:58;17;14;10
54021;PMS7003;39936;51.058;17.220;2023-03-14T02:05:34;21;18;10
54021;PMS7003;39936;51.058;17.220;2023-03-14T02:09:21;15;12;8
54021;PMS7003;39936;51.058;17.220;2023-03-14T02:13:30;14;12;8
54021;PMS7003;39936;51.058;17.220;2023-03-14T02:17:40;18;15;11
54021;PMS7003;39936;51.058;17.220;2023-03-14T02:21:23;23;14;9
54021;PMS7003;39936;51.058;17.220;2023-03-14T02:24:57;17;15;10
54021;PMS7003;39936;51.058;17.220;2023-03-14T02:28:52;13;12;9
54021;PMS7003;39936;51.058;17.220;2023-03-14T02:32:12;21;18;13
54021;PMS7003;39936;51.058;17.220;2023-03-14T02:35:46;18;14;11
54021;PMS7003;39936;51.058;17.220;2023-03-14T02:39:29;18;15;10
54021;PMS7003;39936;51.058;17.220;2023-03-14T02:43:16;20;18;12
54021;PMS7003;39936;51.058;17.220;2023-03-14T02:46:58;15;12;8
54021;PMS7003;39936;51.058;17.220;2023-03-14T02:50:38;18;12;8
54021;PMS7003;39936;51.058;17.220;2023-03-14T02:53:56;16;13;9
54021;PMS7003;39936;51.058;17.220;2023-03-14T02:57:52;14;11;7
54021;PMS7003;39936;51.058;17.220;2023-03-14T03:01:34;10;10;7
54021;PMS7003;39936;51.058;17.220;2023-03-14T03:04:58;14;10;6
54021;PMS7003;39936;51.058;17.220;2023-03-14T03:09:06;13;11;6
54021;PMS7003;39936;51.058;17.220;2023-03-14T03:12:46;11;9;6
54021;PMS7003;39936;51.058;17.220;2023-03-14T03:16:23;11;8;6
54021;PMS7003;39936;51.058;17.220;2023-03-14T03:19:43;8;7;4
54021;PMS7003;39936;51.058;17.220;2023-03-14T03:23:02;15;7;4
54021;PMS7003;39936;51.058;17.220;2023-03-14T03:26:37;9;8;5
54021;PMS7003;39936;51.058;17.220;2023-03-14T03:30:31;8;8;4
54021;PMS7003;39936;51.058;17.220;2023-03-14T03:34:07;9;9;6
54021;PMS7003;39936;51.058;17.220;2023-03-14T03:37:46;9;7;5
54021;PMS7003;39936;51.058;17.220;2023-03-14T03:41:42;9;7;5
54021;PMS7003;39936;51.058;17.220;2023-03-14T03:45:08;8;8;5
54021;PMS7003;39936;51.058;17.220;2023-03-14T03:49:32;7;6;5
54021;PMS7003;39936;51.058;17.220;2023-03-14T03:52:59;7;6;5
54021;PMS7003;39936;51.058;17.220;2023-03-14T03:56:50;11;9;5
54021;PMS7003;39936;51.058;17.220;2023-03-14T04:00:30;8;7;5
54021;PMS7003;39936;51.058;17.220;2023-03-14T04:04:34;8;8;5
54021;PMS7003;39936;51.058;17.220;2023-03-14T04:08:17;10;8;5
54021;PMS7003;39936;51.058;17.220;2023-03-14T04:12:02;9;6;4
54021;PMS7003;39936;51.058;17.220;2023-03-14T04:20:00;11;9;5
54021;PMS7003;39936;51.058;17.220;2023-03-14T04:23:41;8;7;5
54021;PMS7003;39936;51.058;17.220;2023-03-14T04:31:15;8;5;4
54021;PMS7003;39936;51.058;17.220;2023-03-14T04:35:24;8;7;5
54021;PMS7003;39936;51.058;17.220;2023-03-14T04:39:31;7;6;3
54021;PMS7003;39936;51.058;17.220;2023-03-14T04:43:18;6;5;3
54021;PMS7003;39936;51.058;17.220;2023-03-14T04:47:20;6;6;4
54021;PMS7003;39936;51.058;17.220;2023-03-14T04:55:05;12;8;5
54021;PMS7003;39936;51.058;17.220;2023-03-14T04:58:47;9;8;5
54021;PMS7003;39936;51.058;17.220;2023-03-14T05:06:32;10;8;6
54021;PMS7003;39936;51.058;17.220;2023-03-14T05:09:52;9;9;6
54021;PMS7003;39936;51.058;17.220;2023-03-14T05:13:19;9;9;7
54021;PMS7003;39936;51.058;17.220;2023-03-14T05:16:46;21;16;9
54021;PMS7003;39936;51.058;17.220;2023-03-14T05:20:15;9;9;6
54021;PMS7003;39936;51.058;17.220;2023-03-14T05:23:31;12;10;6
54021;PMS7003;39936;51.058;17.220;2023-03-14T05:27:15;14;11;7
54021;PMS7003;39936;51.058;17.220;2023-03-14T05:30:40;11;10;7
54021;PMS7003;39936;51.058;17.220;2023-03-14T05:34:57;12;9;6
54021;PMS7003;39936;51.058;17.220;2023-03-14T05:42:40;8;7;5
54021;PMS7003;39936;51.058;17.220;2023-03-14T05:46:17;14;11;6
54021;PMS7003;39936;51.058;17.220;2023-03-14T05:49:38;7;6;3
54021;PMS7003;39936;51.058;17.220;2023-03-14T05:53:16;11;9;5
54021;PMS7003;39936;51.058;17.220;2023-03-14T05:57:07;9;7;5
54021;PMS7003;39936;51.058;17.220;2023-03-14T06:01:01;7;6;4
54021;PMS7003;39936;51.058;17.220;2023-03-14T06:04:23;9;8;5
54021;PMS7003;39936;51.058;17.220;2023-03-14T06:07:45;9;9;6
54021;PMS7003;39936;51.058;17.220;2023-03-14T06:11:21;13;12;9
54021;PMS7003;39936;51.058;17.220;2023-03-14T06:18:55;14;12;8
54021;PMS7003;39936;51.058;17.220;2023-03-14T06:22:48;12;9;6
54021;PMS7003;39936;51.058;17.220;2023-03-14T06:26:22;10;9;6
54021;PMS7003;39936;51.058;17.220;2023-03-14T06:30:08;10;8;6
54021;PMS7003;39936;51.058;17.220;2023-03-14T06:33:47;12;9;6
54021;PMS7003;39936;51.058;17.220;2023-03-14T06:38:13;11;9;6
54021;PMS7003;39936;51.058;17.220;2023-03-14T06:41:34;11;10;6
54021;PMS7003;39936;51.058;17.220;2023-03-14T06:44:54;12;12;8
54021;PMS7003;39936;51.058;17.220;2023-03-14T06:48:14;13;11;7
54021;PMS7003;39936;51.058;17.220;2023-03-14T06:52:31;12;10;7
54021;PMS7003;39936;51.058;17.220;2023-03-14T06:56:10;11;8;6
54021;PMS7003;39936;51.058;17.220;2023-03-14T07:00:08;11;10;7
54021;PMS7003;39936;51.058;17.220;2023-03-14T07:03:28;15;12;7
54021;PMS7003;39936;51.058;17.220;2023-03-14T07:07:42;11;9;6
54021;PMS7003;39936;51.058;17.220;2023-03-14T07:12:03;10;9;4
54021;PMS7003;39936;51.058;17.220;2023-03-14T07:15:22;8;7;5
54021;PMS7003;39936;51.058;17.220;2023-03-14T07:18:39;10;7;5
54021;PMS7003;39936;51.058;17.220;2023-03-14T07:22:22;7;6;4
54021;PMS7003;39936;51.058;17.220;2023-03-14T07:26:02;10;7;4
54021;PMS7003;39936;51.058;17.220;2023-03-14T07:37:50;13;10;8
54021;PMS7003;39936;51.058;17.220;2023-03-14T07:41:10;13;12;7
54021;PMS7003;39936;51.058;17.220;2023-03-14T07:44:50;15;11;8
54021;PMS7003;39936;51.058;17.220;2023-03-14T07:48:33;14;10;7
54021;PMS7003;39936;51.058;17.220;2023-03-14T07:51:54;10;8;6
54021;PMS7003;39936;51.058;17.220;2023-03-14T07:55:33;8;6;5
54021;PMS7003;39936;51.058;17.220;2023-03-14T07:59:11;11;9;6
54021;PMS7003;39936;51.058;17.220;2023-03-14T08:03:21;8;7;5
54021;PMS7003;39936;51.058;17.220;2023-03-14T08:07:26;18;14;9
54021;PMS7003;39936;51.058;17.220;2023-03-14T08:10:45;11;9;7
54021;PMS7003;39936;51.058;17.220;2023-03-14T08:14:18;12;10;6
54021;PMS7003;39936;51.058;17.220;2023-03-14T08:17:56;13;11;8
54021;PMS7003;39936;51.058;17.220;2023-03-14T08:21:30;10;9;7
54021;PMS7003;39936;51.058;17.220;2023-03-14T08:25:33;12;10;8
54021;PMS7003;39936;51.058;17.220;2023-03-14T08:29:14;17;14;9
54021;PMS7003;39936;51.058;17.220;2023-03-14T08:33:12;17;15;9
54021;PMS7003;39936;51.058;17.220;2023-03-14T08:36:58;14;11;7
54021;PMS7003;39936;51.058;17.220;2023-03-14T08:40:22;18;14;10
54021;PMS7003;39936;51.058;17.220;2023-03-14T08:48:22;14;12;9
54021;PMS7003;39936;51.058;17.220;2023-03-14T08:52:05;15;15;8
54021;PMS7003;39936;51.058;17.220;2023-03-14T08:55:30;11;11;8
54021;PMS7003;39936;51.058;17.220;2023-03-14T08:58:48;13;10;8
54021;PMS7003;39936;51.058;17.220;2023-03-14T09:02:08;14;13;9
54021;PMS7003;39936;51.058;17.220;2023-03-14T09:06:02;15;12;7
54021;PMS7003;39936;51.058;17.220;2023-03-14T09:13:46;15;11;9
54021;PMS7003;39936;51.058;17.220;2023-03-14T09:17:27;15;12;8
54021;PMS7003;39936;51.058;17.220;2023-03-14T09:21:09;9;9;6
54021;PMS7003;39936;51.058;17.220;2023-03-14T09:25:04;16;13;7
54021;PMS7003;39936;51.058;17.220;2023-03-14T09:28:41;13;11;7
54021;PMS7003;39936;51.058;17.220;2023-03-14T09:32:55;13;9;7
54021;PMS7003;39936;51.058;17.220;2023-03-14T09:36:17;11;10;6
54021;PMS7003;39936;51.058;17.220;2023-03-14T09:39:50;11;11;7
54021;PMS7003;39936;51.058;17.220;2023-03-14T09:43:08;13;12;9
54021;PMS7003;39936;51.058;17.220;2023-03-14T09:46:52;15;12;8
54021;PMS7003;39936;51.058;17.220;2023-03-14T09:54:14;12;11;7
54021;PMS7003;39936;51.058;17.220;2023-03-14T10:01:26;14;12;9
54021;PMS7003;39936;51.058;17.220;2023-03-14T10:05:04;14;11;8
54021;PMS7003;39936;51.058;17.220;2023-03-14T10:08:59;11;9;6
54021;PMS7003;39936;51.058;17.220;2023-03-14T10:12:58;12;11;8
54021;PMS7003;39936;51.058;17.220;2023-03-14T10:16:42;12;12;8
54021;PMS7003;39936;51.058;17.220;2023-03-14T10:20:33;14;12;9
54021;PMS7003;39936;51.058;17.220;2023-03-14T10:24:35;19;15;10
54021;PMS7003;39936;51.058;17.220;2023-03-14T10:39:22;18;15;11
54021;PMS7003;39936;51.058;17.220;2023-03-14T10:43:11;14;11;7
54021;PMS7003;39936;51.058;17.220;2023-03-14T10:46:36;14;14;9
54021;PMS7003;39936;51.058;17.220;2023-03-14T10:57:44;15;13;10
54021;PMS7003;39936;51.058;17.220;2023-03-14T11:09:04;14;11;9
54021;PMS7003;39936;51.058;17.220;2023-03-14T11:21:21;16;15;9
54021;PMS7003;39936;51.058;17.220;2023-03-14T11:36:21;16;11;8
54021;PMS7003;39936;51.058;17.220;2023-03-14T11:40:20;14;13;8
54021;PMS7003;39936;51.058;17.220;2023-03-14T11:47:34;16;13;8
54021;PMS7003;39936;51.058;17.220;2023-03-14T11:59:16;18;14;8
54021;PMS7003;39936;51.058;17.220;2023-03-14T12:06:50;17;15;10
54021;PMS7003;39936;51.058;17.220;2023-03-14T12:10:10;13;12;9
54021;PMS7003;39936;51.058;17.220;2023-03-14T12:17:42;15;13;9
54021;PMS7003;39936;51.058;17.220;2023-03-14T12:21:08;14;13;9
54021;PMS7003;39936;51.058;17.220;2023-03-14T12:24:41;14;14;10
54021;PMS7003;39936;51.058;17.220;2023-03-14T12:28:30;18;16;10
54021;PMS7003;39936;51.058;17.220;2023-03-14T12:36:17;14;11;9
54021;PMS7003;39936;51.058;17.220;2023-03-14T12:40:03;17;12;9
54021;PMS7003;39936;51.058;17.220;2023-03-14T12:47:56;16;15;9
54021;PMS7003;39936;51.058;17.220;2023-03-14T13:02:50;13;12;8
54021;PMS7003;39936;51.058;17.220;2023-03-14T13:06:55;13;11;8
54021;PMS7003;39936;51.058;17.220;2023-03-14T13:10:55;16;13;9
54021;PMS7003;39936;51.058;17.220;2023-03-14T13:14:17;19;14;10
54021;PMS7003;39936;51.058;17.220;2023-03-14T13:18:02;15;13;8
54021;PMS7003;39936;51.058;17.220;2023-03-14T13:21:49;16;13;9
54021;PMS7003;39936;51.058;17.220;2023-03-14T13:25:24;17;15;10
54021;PMS7003;39936;51.058;17.220;2023-03-14T13:29:24;14;11;7
54021;PMS7003;39936;51.058;17.220;2023-03-14T13:32:53;12;11;8
54021;PMS7003;39936;51.058;17.220;2023-03-14T13:36:56;13;12;9
54021;PMS7003;39936;51.058;17.220;2023-03-14T13:45:04;17;13;9
54021;PMS7003;39936;51.058;17.220;2023-03-14T13:48:27;16;14;9
54021;PMS7003;39936;51.058;17.220;2023-03-14T13:55:44;15;13;7
54021;PMS7003;39936;51.058;17.220;2023-03-14T14:02:59;13;11;8
54021;PMS7003;39936;51.058;17.220;2023-03-14T14:06:45;12;11;8
54021;PMS7003;39936;51.058;17.220;2023-03-14T14:10:13;15;14;10
54021;PMS7003;39936;51.058;17.220;2023-03-14T14:14:39;16;12;8
54021;PMS7003;39936;51.058;17.220;2023-03-14T14:18:53;21;18;12
54021;PMS7003;39936;51.058;17.220;2023-03-14T14:23:05;21;18;11
54021;PMS7003;39936;51.058;17.220;2023-03-14T14:26:51;26;23;15
54021;PMS7003;39936;51.058;17.220;2023-03-14T14:34:03;20;16;11
54021;PMS7003;39936;51.058;17.220;2023-03-14T14:38:02;23;17;11
54021;PMS7003;39936;51.058;17.220;2023-03-14T14:41:35;20;19;11
54021;PMS7003;39936;51.058;17.220;2023-03-14T14:45:05;17;16;10
54021;PMS7003;39936;51.058;17.220;2023-03-14T14:48:45;14;13;10
54021;PMS7003;39936;51.058;17.220;2023-03-14T14:52:36;12;12;9
54021;PMS7003;39936;51.058;17.220;2023-03-14T14:56:34;17;15;10
54021;PMS7003;39936;51.058;17.220;2023-03-14T15:00:01;14;13;10
54021;PMS7003;39936;51.058;17.220;2023-03-14T15:04:10;13;12;9
54021;PMS7003;39936;51.058;17.220;2023-03-14T15:07:45;17;13;10
54021;PMS7003;39936;51.058;17.220;2023-03-14T15:11:50;13;12;8
54021;PMS7003;39936;51.058;17.220;2023-03-14T15:15:29;14;12;9
54021;PMS7003;39936;51.058;17.220;2023-03-14T15:18:57;15;14;10
54021;PMS7003;39936;51.058;17.220;2023-03-14T15:22:31;14;13;9
54021;PMS7003;39936;51.058;17.220;2023-03-14T15:26:48;16;14;9
54021;PMS7003;39936;51.058;17.220;2023-03-14T15:30:22;16;13;9
54021;PMS7003;39936;51.058;17.220;2023-03-14T15:33:54;17;12;8
54021;PMS7003;39936;51.058;17.220;2023-03-14T15:37:42;16;13;9
54021;PMS7003;39936;51.058;17.220;2023-03-14T15:41:24;22;15;11
54021;PMS7003;39936;51.058;17.220;2023-03-14T15:44:44;18;14;10
54021;PMS7003;39936;51.058;17.220;2023-03-14T15:48:17;19;16;11
54021;PMS7003;39936;51.058;17.220;2023-03-14T15:52:01;18;15;11
54021;PMS7003;39936;51.058;17.220;2023-03-14T15:55:51;19;13;10
54021;PMS7003;39936;51.058;17.220;2023-03-14T15:59:21;13;12;8
54021;PMS7003;39936;51.058;17.220;2023-03-14T16:03:06;17;15;11
54021;PMS7003;39936;51.058;17.220;2023-03-14T16:06:34;15;14;10
54021;PMS7003;39936;51.058;17.220;2023-03-14T16:09:58;16;15;10
54021;PMS7003;39936;51.058;17.220;2023-03-14T16:13:39;21;19;13
54021;PMS7003;39936;51.058;17.220;2023-03-14T16:17:15;19;16;10
54021;PMS7003;39936;51.058;17.220;2023-03-14T16:20:35;13;13;9
54021;PMS7003;39936;51.058;17.220;2023-03-14T16:24:48;14;11;8
54021;PMS7003;39936;51.058;17.220;2023-03-14T16:28:56;11;10;8
54021;PMS7003;39936;51.058;17.220;2023-03-14T16:32:32;11;11;8
54021;PMS7003;39936;51.058;17.220;2023-03-14T16:36:24;14;11;9
54021;PMS7003;39936;51.058;17.220;2023-03-14T16:39:44;13;11;9
54021;PMS7003;39936;51.058;17.220;2023-03-14T16:43:29;12;11;8
54021;PMS7003;39936;51.058;17.220;2023-03-14T16:50:49;16;12;8
54021;PMS7003;39936;51.058;17.220;2023-03-14T16:54:55;16;15;9
54021;PMS7003;39936;51.058;17.220;2023-03-14T16:58:16;19;13;9
54021;PMS7003;39936;51.058;17.220;2023-03-14T17:01:38;15;13;8
54021;PMS7003;39936;51.058;17.220;2023-03-14T17:05:46;17;14;9
54021;PMS7003;39936;51.058;17.220;2023-03-14T17:09:43;14;13;9
54021;PMS7003;39936;51.058;17.220;2023-03-14T17:16:59;15;11;7
54021;PMS7003;39936;51.058;17.220;2023-03-14T17:20:47;12;11;8
54021;PMS7003;39936;51.058;17.220;2023-03-14T17:24:08;11;11;8
54021;PMS7003;39936;51.058;17.220;2023-03-14T17:27:49;12;12;8
54021;PMS7003;39936;51.058;17.220;2023-03-14T17:31:40;13;12;8
54021;PMS7003;39936;51.058;17.220;2023-03-14T17:35:33;11;11;8
54021;PMS7003;39936;51.058;17.220;2023-03-14T17:39:02;14;13;9
54021;PMS7003;39936;51.058;17.220;2023-03-14T17:46:51;14;10;8
54021;PMS7003;39936;51.058;17.220;2023-03-14T17:50:45;14;14;10
54021;PMS7003;39936;51.058;17.220;2023-03-14T17:58:13;18;14;11
54021;PMS7003;39936;51.058;17.220;2023-03-14T18:02:34;14;10;8
54021;PMS7003;39936;51.058;17.220;2023-03-14T18:06:16;17;14;10
54021;PMS7003;39936;51.058;17.220;2023-03-14T18:09:36;20;18;13
54021;PMS7003;39936;51.058;17.220;2023-03-14T18:13:19;22;19;12
54021;PMS7003;39936;51.058;17.220;2023-03-14T18:16:49;23;19;13
54021;PMS7003;39936;51.058;17.220;2023-03-14T18:20:33;24;24;16
54021;PMS7003;39936;51.058;17.220;2023-03-14T18:24:22;25;20;13
54021;PMS7003;39936;51.058;17.220;2023-03-14T18:27:59;24;22;15
54021;PMS7003;39936;51.058;17.220;2023-03-14T18:31:24;20;18;13
54021;PMS7003;39936;51.058;17.220;2023-03-14T18:34:44;18;17;12
54021;PMS7003;39936;51.058;17.220;2023-03-14T18:38:53;29;24;14
54021;PMS7003;39936;51.058;17.220;2023-03-14T18:42:13;30;24;17
54021;PMS7003;39936;51.058;17.220;2023-03-14T18:45:51;25;22;17
54021;PMS7003;39936;51.058;17.220;2023-03-14T18:49:40;31;24;14
54021;PMS7003;39936;51.058;17.220;2023-03-14T18:53:03;21;18;11
54021;PMS7003;39936;51.058;17.220;2023-03-14T18:57:02;18;15;10
54021;PMS7003;39936;51.058;17.220;2023-03-14T19:01:24;21;19;13
54021;PMS7003;39936;51.058;17.220;2023-03-14T19:04:53;21;18;13
54021;PMS7003;39936;51.058;17.220;2023-03-14T19:08:45;16;16;12
54021;PMS7003;39936;51.058;17.220;2023-03-14T19:12:17;20;17;11
54021;PMS7003;39936;51.058;17.220;2023-03-14T19:15:37;17;15;11
54021;PMS7003;39936;51.058;17.220;2023-03-14T19:19:21;19;15;9
54021;PMS7003;39936;51.058;17.220;2023-03-14T19:22:42;18;15;10
54021;PMS7003;39936;51.058;17.220;2023-03-14T19:26:25;15;12;9
54021;PMS7003;39936;51.058;17.220;2023-03-14T19:29:49;20;16;11
54021;PMS7003;39936;51.058;17.220;2023-03-14T19:33:53;15;12;9
54021;PMS7003;39936;51.058;17.220;2023-03-14T19:37:26;13;12;9
54021;PMS7003;39936;51.058;17.220;2023-03-14T19:41:15;17;14;10
54021;PMS7003;39936;51.058;17.220;2023-03-14T19:45:02;15;14;10
54021;PMS7003;39936;51.058;17.220;2023-03-14T19:53:09;13;12;8
54021;PMS7003;39936;51.058;17.220;2023-03-14T19:56:53;17;12;8
54021;PMS7003;39936;51.058;17.220;2023-03-14T20:00:16;14;12;7
54021;PMS7003;39936;51.058;17.220;2023-03-14T20:03:49;14;13;9
54021;PMS7003;39936;51.058;17.220;2023-03-14T20:11:33;1;1;1
54021;PMS7003;39936;51.058;17.220;2023-03-14T20:15:41;0;0;0
54021;PMS7003;39936;51.058;17.220;2023-03-14T20:19:31;1;1;0
54021;PMS7003;39936;51.058;17.220;2023-03-14T20:23:06;2;0;0
54021;PMS7003;39936;51.058;17.220;2023-03-14T20:26:26;1;0;0
54021;PMS7003;39936;51.058;17.220;2023-03-14T20:30:20;0;0;0
54021;PMS7003;39936;51.058;17.220;2023-03-14T20:34:01;0;0;0
54021;PMS7003;39936;51.058;17.220;2023-03-14T20:37:43;0;0;0
54021;PMS7003;39936;51.058;17.220;2023-03-14T20:41:03;0;0;0
54021;PMS7003;39936;51.058;17.220;2023-03-14T20:44:24;0;0;0
54021;PMS7003;39936;51.058;17.220;2023-03-14T20:47:43;2;0;0
54021;PMS7003;39936;51.058;17.220;2023-03-14T20:51:17;0;0;0
54021;PMS7003;39936;51.058;17.220;2023-03-14T20:54:49;0;0;0
54021;PMS7003;39936;51.058;17.220;2023-03-14T20:58:30;0;0;0
54021;PMS7003;39936;51.058;17.220;2023-03-14T21:02:33;1;0;0
54021;PMS7003;39936;51.058;17.220;2023-03-14T21:05:56;0;0;0
54021;PMS7003;39936;51.058;17.220;2023-03-14T21:09:32;0;0;0
54021;PMS7003;39936;51.058;17.220;2023-03-14T21:13:14;1;1;0
54021;PMS7003;39936;51.058;17.220;2023-03-14T21:16:55;0;0;0
54021;PMS7003;39936;51.058;17.220;2023-03-14T21:20:31;0;0;0
54021;PMS7003;39936;51.058;17.220;2023-03-14T21:24:18;1;0;0
54021;PMS7003;39936;51.058;17.220;2023-03-14T21:28:08;2;1;0
54021;PMS7003;39936;51.058;17.220;2023-03-14T21:31:29;0;0;0
54021;PMS7003;39936;51.058;17.220;2023-03-14T21:35:10;0;0;0
54021;PMS7003;39936;51.058;17.220;2023-03-14T21:38:41;1;1;0
54021;PMS7003;39936;51.058;17.220;2023-03-14T21:42:32;4;2;0
54021;PMS7003;39936;51.058;17.220;2023-03-14T21:46:11;0;0;0
54021;PMS7003;39936;51.058;17.220;2023-03-14T21:49:59;2;2;1
54021;PMS7003;39936;51.058;17.220;2023-03-14T21:53:52;2;2;0
54021;PMS7003;39936;51.058;17.220;2023-03-14T21:57:53;0;0;0
54021;PMS7003;39936;51.058;17.220;2023-03-14T22:02:18;0;0;0
54021;PMS7003;39936;51.058;17.220;2023-03-14T22:05:41;0;0;0
54021;PMS7003;39936;51.058;17.220;2023-03-14T22:10:09;2;1;1
54021;PMS7003;39936;51.058;17.220;2023-03-14T22:14:06;5;2;0
54021;PMS7003;39936;51.058;17.220;2023-03-14T22:17:25;1;1;0
54021;PMS7003;39936;51.058;17.220;2023-03-14T22:21:01;2;2;0
54021;PMS7003;39936;51.058;17.220;2023-03-14T22:24:22;2;1;0
54021;PMS7003;39936;51.058;17.220;2023-03-14T22:28:33;3;2;0
54021;PMS7003;39936;51.058;17.220;2023-03-14T22:32:14;3;2;0
54021;PMS7003;39936;51.058;17.220;2023-03-14T22:36:29;4;1;0
54021;PMS7003;39936;51.058;17.220;2023-03-14T22:40:59;2;2;0
54021;PMS7003;39936;51.058;17.220;2023-03-14T22:44:35;2;1;0
54021;PMS7003;39936;51.058;17.220;2023-03-14T22:48:21;1;1;0
54021;PMS7003;39936;51.058;17.220;2023-03-14T22:55:35;2;0;0
54021;PMS7003;39936;51.058;17.220;2023-03-14T22:59:18;1;1;0
54021;PMS7003;39936;51.058;17.220;2023-03-14T23:02:46;1;0;0
54021;PMS7003;39936;51.058;17.220;2023-03-14T23:06:59;2;1;0
54021;PMS7003;39936;51.058;17.220;2023-03-14T23:10:45;1;1;0
54021;PMS7003;39936;51.058;17.220;2023-03-14T23:14:06;1;1;0
54021;PMS7003;39936;51.058;17.220;2023-03-14T23:17:47;3;2;0
54021;PMS7003;39936;51.058;17.220;2023-03-14T23:21:41;5;4;1
54021;PMS7003;39936;51.058;17.220;2023-03-14T23:25:32;4;2;1
54021;PMS7003;39936;51.058;17.220;2023-03-14T23:29:46;5;2;0
54021;PMS7003;39936;51.058;17.220;2023-03-14T23:33:13;5;3;1
54021;PMS7003;39936;51.058;17.220;2023-03-14T23:36:47;1;1;0
54021;PMS7003;39936;51.058;17.220;2023-03-14T23:40:25;5;3;1
54021;PMS7003;39936;51.058;17.220;2023-03-14T23:44:41;3;3;0
54021;PMS7003;39936;51.058;17.220;2023-03-14T23:48:33;6;3;1
54021;PMS7003;39936;51.058;17.220;2023-03-14T23:52:34;9;4;3
54021;PMS7003;39936;51.058;17.220;2023-03-14T23:56:26;4;3;2
